sensor_id;sensor_type;location;lat;lon;timestamp;temperature;humidity
1179;DHT22;578;48.408;10.004;2024-03-23T00:52:17;6.80;99.90
1179;DHT22;578;48.408;10.004;2024-03-23T00:54:19;6.90;99.90
1179;DHT22;578;48.408;10.004;2024-03-23T00:56:20;6.90;99.90
1179;DHT22;578;48.408;10.004;2024-03-23T00:58:21;6.90;99.90
1179;DHT22;578;48.408;10.004;2024-03-23T01:00:22;6.80;99.90
1179;DHT22;578;48.408;10.004;2024-03-23T01:02:24;6.80;99.90
1179;DHT22;578;48.408;10.004;2024-03-23T01:04:25;6.70;99.90
1179;DHT22;578;48.408;10.004;2024-03-23T01:06:26;6.70;99.90
1179;DHT22;578;48.408;10.004;2024-03-23T01:08:28;6.60;99.90
1179;DHT22;578;48.408;10.004;2024-03-23T01:10:30;6.60;99.90
1179;DHT22;578;48.408;10.004;2024-03-23T01:12:31;6.60;99.90
1179;DHT22;578;48.408;10.004;2024-03-23T01:14:33;6.60;99.90
1179;DHT22;578;48.408;10.004;2024-03-23T01:16:33;6.60;99.90
1179;DHT22;578;48.408;10.004;2024-03-23T01:18:35;6.50;99.90
1179;DHT22;578;48.408;10.004;2024-03-23T01:20:36;6.50;99.90
1179;DHT22;578;48.408;10.004;2024-03-23T01:22:38;6.40;99.90
1179;DHT22;578;48.408;10.004;2024-03-23T01:24:40;6.40;99.90
1179;DHT22;578;48.408;10.004;2024-03-23T01:26:41;6.40;99.90
1179;DHT22;578;48.408;10.004;2024-03-23T01:28:43;6.40;99.90
1179;DHT22;578;48.408;10.004;2024-03-23T01:30:45;6.40;99.90
1179;DHT22;578;48.408;10.004;2024-03-23T01:32:45;6.40;99.90
1179;DHT22;578;48.408;10.004;2024-03-23T01:34:47;6.30;99.90
1179;DHT22;578;48.408;10.004;2024-03-23T01:36:48;6.30;99.90
1179;DHT22;578;48.408;10.004;2024-03-23T01:38:51;6.40;99.90
1179;DHT22;578;48.408;10.004;2024-03-23T01:40:57;6.60;99.90
1179;DHT22;578;48.408;10.004;2024-03-23T01:43:04;6.60;99.90
1179;DHT22;578;48.408;10.004;2024-03-23T01:45:08;6.70;99.90
1179;DHT22;578;48.408;10.004;2024-03-23T01:47:09;6.60;99.90
1179;DHT22;578;48.408;10.004;2024-03-23T01:49:12;6.70;99.90
1179;DHT22;578;48.408;10.004;2024-03-23T01:51:13;6.70;99.90
1179;DHT22;578;48.408;10.004;2024-03-23T01:53:15;6.80;99.90
1179;DHT22;578;48.408;10.004;2024-03-23T01:55:18;6.70;99.90
1179;DHT22;578;48.408;10.004;2024-03-23T01:57:21;6.80;99.90
1179;DHT22;578;48.408;10.004;2024-03-23T01:59:22;6.70;99.90
1179;DHT22;578;48.408;10.004;2024-03-23T02:01:24;6.70;99.90
1179;DHT22;578;48.408;10.004;2024-03-23T02:03:26;6.60;99.90
1179;DHT22;578;48.408;10.004;2024-03-23T02:05:28;6.60;99.90
1179;DHT22;578;48.408;10.004;2024-03-23T02:07:30;6.50;99.90
1179;DHT22;578;48.408;10.004;2024-03-23T02:09:31;6.50;99.90
1179;DHT22;578;48.408;10.004;2024-03-23T02:11:33;6.50;99.90
1179;DHT22;578;48.408;10.004;2024-03-23T02:13:35;6.60;99.90
1179;DHT22;578;48.408;10.004;2024-03-23T02:15:36;6.60;99.90
1179;DHT22;578;48.408;10.004;2024-03-23T02:17:38;6.60;99.90
1179;DHT22;578;48.408;10.004;2024-03-23T02:19:38;6.60;99.90
1179;DHT22;578;48.408;10.004;2024-03-23T02:21:40;6.60;99.90
1179;DHT22;578;48.408;10.004;2024-03-23T02:23:42;6.60;99.90
1179;DHT22;578;48.408;10.004;2024-03-23T02:25:44;6.60;99.90
1179;DHT22;578;48.408;10.004;2024-03-23T02:27:45;6.60;99.90
1179;DHT22;578;48.408;10.004;2024-03-23T02:29:47;6.70;99.90
1179;DHT22;578;48.408;10.004;2024-03-23T02:31:48;6.70;99.90
1179;DHT22;578;48.408;10.004;2024-03-23T02:33:49;6.80;99.90
1179;DHT22;578;48.408;10.004;2024-03-23T02:35:50;6.90;99.90
1179;DHT22;578;48.408;10.004;2024-03-23T02:37:52;7.00;99.90
1179;DHT22;578;48.408;10.004;2024-03-23T02:39:54;7.00;99.90
1179;DHT22;578;48.408;10.004;2024-03-23T02:41:56;7.10;99.90
1179;DHT22;578;48.408;10.004;2024-03-23T02:43:57;7.10;99.90
1179;DHT22;578;48.408;10.004;2024-03-23T02:45:59;7.20;99.90
1179;DHT22;578;48.408;10.004;2024-03-23T02:47:59;7.30;99.90
1179;DHT22;578;48.408;10.004;2024-03-23T02:50:01;7.40;99.90
1179;DHT22;578;48.408;10.004;2024-03-23T02:52:02;7.50;99.90
1179;DHT22;578;48.408;10.004;2024-03-23T02:54:04;7.60;99.90
1179;DHT22;578;48.408;10.004;2024-03-23T02:56:06;7.80;99.90
1179;DHT22;578;48.408;10.004;2024-03-23T02:58:08;7.90;99.90
1179;DHT22;578;48.408;10.004;2024-03-23T03:00:10;8.00;99.90
1179;DHT22;578;48.408;10.004;2024-03-23T03:02:13;8.10;99.90
1179;DHT22;578;48.408;10.004;2024-03-23T03:04:14;8.10;99.90
1179;DHT22;578;48.408;10.004;2024-03-23T03:06:23;8.20;99.90
1179;DHT22;578;48.408;10.004;2024-03-23T03:08:24;8.30;99.90
1179;DHT22;578;48.408;10.004;2024-03-23T03:10:25;8.30;99.90
1179;DHT22;578;48.408;10.004;2024-03-23T03:12:27;8.30;99.90
1179;DHT22;578;48.408;10.004;2024-03-23T03:14:29;8.30;99.90
1179;DHT22;578;48.408;10.004;2024-03-23T03:16:30;8.40;99.90
1179;DHT22;578;48.408;10.004;2024-03-23T03:18:32;8.50;99.90
1179;DHT22;578;48.408;10.004;2024-03-23T03:20:32;8.50;99.90
1179;DHT22;578;48.408;10.004;2024-03-23T03:22:35;8.60;99.90
1179;DHT22;578;48.408;10.004;2024-03-23T03:24:36;8.60;99.90
1179;DHT22;578;48.408;10.004;2024-03-23T03:26:37;8.60;99.90
1179;DHT22;578;48.408;10.004;2024-03-23T03:28:39;8.60;99.90
1179;DHT22;578;48.408;10.004;2024-03-23T03:30:41;8.70;99.90
1179;DHT22;578;48.408;10.004;2024-03-23T03:32:42;8.70;99.90
1179;DHT22;578;48.408;10.004;2024-03-23T03:34:43;8.70;99.90
1179;DHT22;578;48.408;10.004;2024-03-23T03:36:44;8.70;99.90
1179;DHT22;578;48.408;10.004;2024-03-23T03:38:46;8.70;99.90
1179;DHT22;578;48.408;10.004;2024-03-23T03:40:47;8.70;99.90
1179;DHT22;578;48.408;10.004;2024-03-23T03:42:49;8.80;99.90
1179;DHT22;578;48.408;10.004;2024-03-23T03:44:51;8.80;99.90
1179;DHT22;578;48.408;10.004;2024-03-23T03:46:54;8.80;99.90
1179;DHT22;578;48.408;10.004;2024-03-23T03:48:55;8.90;99.90
1179;DHT22;578;48.408;10.004;2024-03-23T03:50:56;8.90;99.90
1179;DHT22;578;48.408;10.004;2024-03-23T03:52:57;9.00;99.90
1179;DHT22;578;48.408;10.004;2024-03-23T03:55:02;9.20;99.90
1179;DHT22;578;48.408;10.004;2024-03-23T03:57:03;9.20;99.90
1179;DHT22;578;48.408;10.004;2024-03-23T03:59:05;9.30;99.90
1179;DHT22;578;48.408;10.004;2024-03-23T04:01:07;9.30;99.90
1179;DHT22;578;48.408;10.004;2024-03-23T04:03:09;9.30;99.90
1179;DHT22;578;48.408;10.004;2024-03-23T04:05:09;9.40;99.90
1179;DHT22;578;48.408;10.004;2024-03-23T04:07:11;9.40;99.90
1179;DHT22;578;48.408;10.004;2024-03-23T04:09:12;9.40;99.90
1179;DHT22;578;48.408;10.004;2024-03-23T04:11:14;9.40;99.90
1179;DHT22;578;48.408;10.004;2024-03-23T04:13:14;9.40;99.90
1179;DHT22;578;48.408;10.004;2024-03-23T04:15:17;9.30;99.90
1179;DHT22;578;48.408;10.004;2024-03-23T04:17:19;9.20;99.90
1179;DHT22;578;48.408;10.004;2024-03-23T04:19:21;9.20;99.90
1179;DHT22;578;48.408;10.004;2024-03-23T04:21:22;9.10;99.90
1179;DHT22;578;48.408;10.004;2024-03-23T04:23:24;9.10;99.90
1179;DHT22;578;48.408;10.004;2024-03-23T04:25:25;9.00;99.90
1179;DHT22;578;48.408;10.004;2024-03-23T04:27:27;8.90;99.90
1179;DHT22;578;48.408;10.004;2024-03-23T04:29:28;9.00;99.90
1179;DHT22;578;48.408;10.004;2024-03-23T04:31:29;8.90;99.90
1179;DHT22;578;48.408;10.004;2024-03-23T04:33:34;8.80;99.90
1179;DHT22;578;48.408;10.004;2024-03-23T04:35:35;8.80;99.90
1179;DHT22;578;48.408;10.004;2024-03-23T04:37:37;8.70;99.90
1179;DHT22;578;48.408;10.004;2024-03-23T04:39:41;8.60;99.90
1179;DHT22;578;48.408;10.004;2024-03-23T04:41:42;8.50;99.90
1179;DHT22;578;48.408;10.004;2024-03-23T04:43:43;8.40;99.90
1179;DHT22;578;48.408;10.004;2024-03-23T04:45:45;8.30;99.90
1179;DHT22;578;48.408;10.004;2024-03-23T04:47:47;8.30;99.90
1179;DHT22;578;48.408;10.004;2024-03-23T04:49:50;8.30;99.90
1179;DHT22;578;48.408;10.004;2024-03-23T04:51:51;8.20;99.90
1179;DHT22;578;48.408;10.004;2024-03-23T04:53:52;8.10;99.90
1179;DHT22;578;48.408;10.004;2024-03-23T04:55:54;8.10;99.90
1179;DHT22;578;48.408;10.004;2024-03-23T04:57:55;8.10;99.90
1179;DHT22;578;48.408;10.004;2024-03-23T04:59:57;8.10;99.90
1179;DHT22;578;48.408;10.004;2024-03-23T05:01:58;8.00;99.90
1179;DHT22;578;48.408;10.004;2024-03-23T05:04:00;8.00;99.90
1179;DHT22;578;48.408;10.004;2024-03-23T05:06:03;8.00;99.90
1179;DHT22;578;48.408;10.004;2024-03-23T05:08:06;7.90;99.90
1179;DHT22;578;48.408;10.004;2024-03-23T05:10:09;7.80;99.90
1179;DHT22;578;48.408;10.004;2024-03-23T05:12:11;7.80;99.90
1179;DHT22;578;48.408;10.004;2024-03-23T05:14:13;7.80;99.90
1179;DHT22;578;48.408;10.004;2024-03-23T05:16:14;7.90;99.90
1179;DHT22;578;48.408;10.004;2024-03-23T05:18:15;7.90;99.90
1179;DHT22;578;48.408;10.004;2024-03-23T05:20:17;8.00;99.90
1179;DHT22;578;48.408;10.004;2024-03-23T05:22:20;8.10;99.90
1179;DHT22;578;48.408;10.004;2024-03-23T05:24:22;8.20;99.90
1179;DHT22;578;48.408;10.004;2024-03-23T05:26:23;8.20;99.90
1179;DHT22;578;48.408;10.004;2024-03-23T05:28:24;8.30;99.90
1179;DHT22;578;48.408;10.004;2024-03-23T05:30:25;8.30;99.90
1179;DHT22;578;48.408;10.004;2024-03-23T05:32:27;8.20;99.90
1179;DHT22;578;48.408;10.004;2024-03-23T05:34:28;8.30;99.90
1179;DHT22;578;48.408;10.004;2024-03-23T05:36:29;8.30;99.90
1179;DHT22;578;48.408;10.004;2024-03-23T05:38:32;8.40;99.90
1179;DHT22;578;48.408;10.004;2024-03-23T05:40:34;8.40;99.90
1179;DHT22;578;48.408;10.004;2024-03-23T05:42:37;8.50;99.90
1179;DHT22;578;48.408;10.004;2024-03-23T05:44:39;8.50;99.90
1179;DHT22;578;48.408;10.004;2024-03-23T05:46:40;8.50;99.90
1179;DHT22;578;48.408;10.004;2024-03-23T05:48:42;8.60;99.90
1179;DHT22;578;48.408;10.004;2024-03-23T05:50:42;8.70;99.90
1179;DHT22;578;48.408;10.004;2024-03-23T05:52:44;8.70;99.90
1179;DHT22;578;48.408;10.004;2024-03-23T05:54:46;8.80;99.90
1179;DHT22;578;48.408;10.004;2024-03-23T05:56:48;8.80;99.90
1179;DHT22;578;48.408;10.004;2024-03-23T05:58:49;8.90;99.90
1179;DHT22;578;48.408;10.004;2024-03-23T06:00:57;8.80;99.90
1179;DHT22;578;48.408;10.004;2024-03-23T06:02:58;8.80;99.90
1179;DHT22;578;48.408;10.004;2024-03-23T06:04:59;8.90;99.90
1179;DHT22;578;48.408;10.004;2024-03-23T06:07:01;8.80;99.90
1179;DHT22;578;48.408;10.004;2024-03-23T06:09:03;8.80;99.90
1179;DHT22;578;48.408;10.004;2024-03-23T06:11:06;8.90;99.90
1179;DHT22;578;48.408;10.004;2024-03-23T06:13:07;8.90;99.90
1179;DHT22;578;48.408;10.004;2024-03-23T06:15:09;8.90;99.90
1179;DHT22;578;48.408;10.004;2024-03-23T06:17:11;8.90;99.90
1179;DHT22;578;48.408;10.004;2024-03-23T06:19:12;8.90;99.90
1179;DHT22;578;48.408;10.004;2024-03-23T06:21:14;8.90;99.90
1179;DHT22;578;48.408;10.004;2024-03-23T06:23:15;8.90;99.90
1179;DHT22;578;48.408;10.004;2024-03-23T06:25:17;9.00;99.90
1179;DHT22;578;48.408;10.004;2024-03-23T06:27:19;9.00;99.90
1179;DHT22;578;48.408;10.004;2024-03-23T06:29:21;8.90;99.90
1179;DHT22;578;48.408;10.004;2024-03-23T06:31:22;8.90;99.90
1179;DHT22;578;48.408;10.004;2024-03-23T06:33:23;8.90;99.90
1179;DHT22;578;48.408;10.004;2024-03-23T06:35:24;9.00;99.90
1179;DHT22;578;48.408;10.004;2024-03-23T06:37:26;9.00;99.90
1179;DHT22;578;48.408;10.004;2024-03-23T06:39:27;9.10;99.90
1179;DHT22;578;48.408;10.004;2024-03-23T06:41:28;9.10;99.90
1179;DHT22;578;48.408;10.004;2024-03-23T06:43:31;9.10;99.90
1179;DHT22;578;48.408;10.004;2024-03-23T06:45:33;9.10;99.90
1179;DHT22;578;48.408;10.004;2024-03-23T06:47:34;9.00;99.90
1179;DHT22;578;48.408;10.004;2024-03-23T06:49:35;9.00;99.90
1179;DHT22;578;48.408;10.004;2024-03-23T06:51:36;8.90;99.90
1179;DHT22;578;48.408;10.004;2024-03-23T06:53:40;8.90;99.90
1179;DHT22;578;48.408;10.004;2024-03-23T06:55:41;8.80;99.90
1179;DHT22;578;48.408;10.004;2024-03-23T06:57:43;8.80;99.90
1179;DHT22;578;48.408;10.004;2024-03-23T06:59:45;8.70;99.90
1179;DHT22;578;48.408;10.004;2024-03-23T07:01:47;8.70;99.90
1179;DHT22;578;48.408;10.004;2024-03-23T07:03:47;8.70;99.90
1179;DHT22;578;48.408;10.004;2024-03-23T07:05:49;8.70;99.90
1179;DHT22;578;48.408;10.004;2024-03-23T07:07:50;8.60;99.90
1179;DHT22;578;48.408;10.004;2024-03-23T07:09:52;8.70;99.90
1179;DHT22;578;48.408;10.004;2024-03-23T07:11:53;8.60;99.90
1179;DHT22;578;48.408;10.004;2024-03-23T07:13:55;8.70;99.90
1179;DHT22;578;48.408;10.004;2024-03-23T07:15:58;8.70;99.90
1179;DHT22;578;48.408;10.004;2024-03-23T07:18:00;8.70;99.90
1179;DHT22;578;48.408;10.004;2024-03-23T07:20:01;8.70;99.90
1179;DHT22;578;48.408;10.004;2024-03-23T07:22:04;8.70;99.90
1179;DHT22;578;48.408;10.004;2024-03-23T07:24:06;8.70;99.90
1179;DHT22;578;48.408;10.004;2024-03-23T07:26:07;8.70;99.90
1179;DHT22;578;48.408;10.004;2024-03-23T07:28:08;8.60;99.90
1179;DHT22;578;48.408;10.004;2024-03-23T07:30:11;8.70;99.90
1179;DHT22;578;48.408;10.004;2024-03-23T07:32:14;8.70;99.90
1179;DHT22;578;48.408;10.004;2024-03-23T07:34:15;8.70;99.90
1179;DHT22;578;48.408;10.004;2024-03-23T07:36:19;8.70;99.90
1179;DHT22;578;48.408;10.004;2024-03-23T07:38:20;8.70;99.90
1179;DHT22;578;48.408;10.004;2024-03-23T07:40:22;8.70;99.90
1179;DHT22;578;48.408;10.004;2024-03-23T07:42:24;8.70;99.90
1179;DHT22;578;48.408;10.004;2024-03-23T07:44:27;8.70;99.90
1179;DHT22;578;48.408;10.004;2024-03-23T07:46:28;8.70;99.90
1179;DHT22;578;48.408;10.004;2024-03-23T07:48:31;8.70;99.90
1179;DHT22;578;48.408;10.004;2024-03-23T07:50:32;8.70;99.90
1179;DHT22;578;48.408;10.004;2024-03-23T07:52:33;8.70;99.90
1179;DHT22;578;48.408;10.004;2024-03-23T07:54:35;8.70;99.90
1179;DHT22;578;48.408;10.004;2024-03-23T07:56:35;8.80;99.90
1179;DHT22;578;48.408;10.004;2024-03-23T07:58:38;8.80;99.90
1179;DHT22;578;48.408;10.004;2024-03-23T08:00:39;8.90;99.90
1179;DHT22;578;48.408;10.004;2024-03-23T08:02:41;9.00;99.90
1179;DHT22;578;48.408;10.004;2024-03-23T08:04:43;8.90;99.90
1179;DHT22;578;48.408;10.004;2024-03-23T08:06:44;9.00;99.90
1179;DHT22;578;48.408;10.004;2024-03-23T08:08:47;9.00;99.90
1179;DHT22;578;48.408;10.004;2024-03-23T08:10:49;9.00;99.90
1179;DHT22;578;48.408;10.004;2024-03-23T08:12:50;9.00;99.90
1179;DHT22;578;48.408;10.004;2024-03-23T08:14:52;9.00;99.90
1179;DHT22;578;48.408;10.004;2024-03-23T08:16:54;9.00;99.90
1179;DHT22;578;48.408;10.004;2024-03-23T08:18:56;9.10;99.90
1179;DHT22;578;48.408;10.004;2024-03-23T08:20:58;9.20;99.90
1179;DHT22;578;48.408;10.004;2024-03-23T08:23:00;9.20;99.90
1179;DHT22;578;48.408;10.004;2024-03-23T08:25:01;9.20;99.90
1179;DHT22;578;48.408;10.004;2024-03-23T08:27:02;9.10;99.90
1179;DHT22;578;48.408;10.004;2024-03-23T08:29:05;9.20;99.90
1179;DHT22;578;48.408;10.004;2024-03-23T08:31:07;9.20;99.90
1179;DHT22;578;48.408;10.004;2024-03-23T08:33:09;9.30;99.90
1179;DHT22;578;48.408;10.004;2024-03-23T08:35:10;9.40;99.90
1179;DHT22;578;48.408;10.004;2024-03-23T08:37:13;9.50;99.90
1179;DHT22;578;48.408;10.004;2024-03-23T08:39:13;9.60;99.90
1179;DHT22;578;48.408;10.004;2024-03-23T08:41:15;9.70;99.90
1179;DHT22;578;48.408;10.004;2024-03-23T08:43:16;9.70;99.90
1179;DHT22;578;48.408;10.004;2024-03-23T08:45:18;9.50;99.90
1179;DHT22;578;48.408;10.004;2024-03-23T08:47:18;9.50;99.90
1179;DHT22;578;48.408;10.004;2024-03-23T08:49:20;9.40;99.90
1179;DHT22;578;48.408;10.004;2024-03-23T08:51:21;9.40;99.90
1179;DHT22;578;48.408;10.004;2024-03-23T08:53:24;9.70;99.90
1179;DHT22;578;48.408;10.004;2024-03-23T08:55:25;9.80;99.90
1179;DHT22;578;48.408;10.004;2024-03-23T08:57:26;9.70;99.90
1179;DHT22;578;48.408;10.004;2024-03-23T08:59:27;9.80;99.90
1179;DHT22;578;48.408;10.004;2024-03-23T09:01:28;9.70;99.90
1179;DHT22;578;48.408;10.004;2024-03-23T09:03:30;9.40;99.90
1179;DHT22;578;48.408;10.004;2024-03-23T09:05:31;9.30;99.90
1179;DHT22;578;48.408;10.004;2024-03-23T09:07:36;9.20;99.90
1179;DHT22;578;48.408;10.004;2024-03-23T09:09:39;8.90;99.90
1179;DHT22;578;48.408;10.004;2024-03-23T09:11:41;8.80;99.90
1179;DHT22;578;48.408;10.004;2024-03-23T09:13:42;8.80;99.90
1179;DHT22;578;48.408;10.004;2024-03-23T09:15:47;8.90;99.90
1179;DHT22;578;48.408;10.004;2024-03-23T09:17:48;8.90;99.90
1179;DHT22;578;48.408;10.004;2024-03-23T09:19:50;8.80;99.90
1179;DHT22;578;48.408;10.004;2024-03-23T09:21:50;8.90;99.90
1179;DHT22;578;48.408;10.004;2024-03-23T09:23:52;8.90;99.90
1179;DHT22;578;48.408;10.004;2024-03-23T09:25:54;9.00;99.90
1179;DHT22;578;48.408;10.004;2024-03-23T09:27:55;9.10;99.90
1179;DHT22;578;48.408;10.004;2024-03-23T09:29:57;9.10;99.90
1179;DHT22;578;48.408;10.004;2024-03-23T09:31:57;9.10;99.90
1179;DHT22;578;48.408;10.004;2024-03-23T09:33:59;9.20;99.90
1179;DHT22;578;48.408;10.004;2024-03-23T09:36:03;9.40;99.90
1179;DHT22;578;48.408;10.004;2024-03-23T09:38:05;9.50;99.90
1179;DHT22;578;48.408;10.004;2024-03-23T09:40:09;9.70;99.90
1179;DHT22;578;48.408;10.004;2024-03-23T09:42:13;9.60;89.30
1179;DHT22;578;48.408;10.004;2024-03-23T09:44:14;9.40;80.20
1179;DHT22;578;48.408;10.004;2024-03-23T09:46:16;9.40;93.20
1179;DHT22;578;48.408;10.004;2024-03-23T09:48:17;9.40;83.80
1179;DHT22;578;48.408;10.004;2024-03-23T09:50:18;9.30;79.90
1179;DHT22;578;48.408;10.004;2024-03-23T09:52:20;9.30;77.90
1179;DHT22;578;48.408;10.004;2024-03-23T09:54:21;9.70;83.80
1179;DHT22;578;48.408;10.004;2024-03-23T09:56:23;9.80;71.50
1179;DHT22;578;48.408;10.004;2024-03-23T09:58:25;9.90;79.30
1179;DHT22;578;48.408;10.004;2024-03-23T10:00:27;9.90;60.00
1179;DHT22;578;48.408;10.004;2024-03-23T10:02:29;10.00;63.10
1179;DHT22;578;48.408;10.004;2024-03-23T10:04:37;10.00;66.50
1179;DHT22;578;48.408;10.004;2024-03-23T10:06:37;9.90;65.50
1179;DHT22;578;48.408;10.004;2024-03-23T10:08:39;10.20;64.70
1179;DHT22;578;48.408;10.004;2024-03-23T10:10:40;10.60;73.80
1179;DHT22;578;48.408;10.004;2024-03-23T10:12:44;9.90;13.60
1179;DHT22;578;48.408;10.004;2024-03-23T10:14:49;10.00;25.00
1179;DHT22;578;48.408;10.004;2024-03-23T10:16:49;10.10;43.70
1179;DHT22;578;48.408;10.004;2024-03-23T10:18:52;10.30;40.30
1179;DHT22;578;48.408;10.004;2024-03-23T10:21:06;9.90;33.40
1179;DHT22;578;48.408;10.004;2024-03-23T10:23:15;9.70;29.50
1179;DHT22;578;48.408;10.004;2024-03-23T10:25:17;9.20;22.00
1179;DHT22;578;48.408;10.004;2024-03-23T10:27:21;9.10;19.70
1179;DHT22;578;48.408;10.004;2024-03-23T10:29:21;9.40;36.30
1179;DHT22;578;48.408;10.004;2024-03-23T10:31:25;9.20;26.10
1179;DHT22;578;48.408;10.004;2024-03-23T10:33:26;9.20;31.70
1179;DHT22;578;48.408;10.004;2024-03-23T10:35:28;9.30;40.70
1179;DHT22;578;48.408;10.004;2024-03-23T10:37:31;9.40;38.20
1179;DHT22;578;48.408;10.004;2024-03-23T10:39:33;9.40;33.80
1179;DHT22;578;48.408;10.004;2024-03-23T10:41:36;9.50;32.80
1179;DHT22;578;48.408;10.004;2024-03-23T10:43:38;9.60;28.60
1179;DHT22;578;48.408;10.004;2024-03-23T10:45:40;9.70;33.40
1179;DHT22;578;48.408;10.004;2024-03-23T10:47:42;9.70;21.30
1179;DHT22;578;48.408;10.004;2024-03-23T10:49:44;9.70;29.50
1179;DHT22;578;48.408;10.004;2024-03-23T10:51:47;9.70;30.00
1179;DHT22;578;48.408;10.004;2024-03-23T10:53:48;9.70;32.50
1179;DHT22;578;48.408;10.004;2024-03-23T10:55:50;9.80;30.30
1179;DHT22;578;48.408;10.004;2024-03-23T10:57:54;9.70;26.30
1179;DHT22;578;48.408;10.004;2024-03-23T10:59:56;9.70;16.50
1179;DHT22;578;48.408;10.004;2024-03-23T11:02:00;9.80;25.50
1179;DHT22;578;48.408;10.004;2024-03-23T11:04:04;9.80;28.30
1179;DHT22;578;48.408;10.004;2024-03-23T11:06:06;9.70;21.90
1179;DHT22;578;48.408;10.004;2024-03-23T11:08:08;9.30;19.20
1179;DHT22;578;48.408;10.004;2024-03-23T11:10:25;9.30;37.50
1179;DHT22;578;48.408;10.004;2024-03-23T11:12:27;9.30;40.70
1179;DHT22;578;48.408;10.004;2024-03-23T11:14:32;9.30;39.00
1179;DHT22;578;48.408;10.004;2024-03-23T11:16:33;9.10;27.60
1179;DHT22;578;48.408;10.004;2024-03-23T11:18:36;9.20;34.00
1179;DHT22;578;48.408;10.004;2024-03-23T11:20:38;9.20;32.60
1179;DHT22;578;48.408;10.004;2024-03-23T11:22:41;9.30;21.70
1179;DHT22;578;48.408;10.004;2024-03-23T11:24:50;9.20;12.00
1179;DHT22;578;48.408;10.004;2024-03-23T11:26:51;9.30;21.40
1179;DHT22;578;48.408;10.004;2024-03-23T11:29:08;9.10;10.10
1179;DHT22;578;48.408;10.004;2024-03-23T11:31:10;9.10;21.70
1179;DHT22;578;48.408;10.004;2024-03-23T11:33:12;9.30;11.10
1179;DHT22;578;48.408;10.004;2024-03-23T11:35:27;9.60;10.10
1179;DHT22;578;48.408;10.004;2024-03-23T11:37:30;10.10;1.00
1179;DHT22;578;48.408;10.004;2024-03-23T11:39:31;10.70;1.00
1179;DHT22;578;48.408;10.004;2024-03-23T11:41:32;11.00;1.00
1179;DHT22;578;48.408;10.004;2024-03-23T11:43:34;11.10;1.00
1179;DHT22;578;48.408;10.004;2024-03-23T11:45:36;11.00;1.00
1179;DHT22;578;48.408;10.004;2024-03-23T11:47:38;11.10;1.00
1179;DHT22;578;48.408;10.004;2024-03-23T11:49:39;11.20;1.00
1179;DHT22;578;48.408;10.004;2024-03-23T11:51:42;11.20;1.00
1179;DHT22;578;48.408;10.004;2024-03-23T11:53:45;11.40;1.00
1179;DHT22;578;48.408;10.004;2024-03-23T11:55:48;11.30;1.00
1179;DHT22;578;48.408;10.004;2024-03-23T11:57:49;11.20;1.00
1179;DHT22;578;48.408;10.004;2024-03-23T11:59:51;11.20;1.00
1179;DHT22;578;48.408;10.004;2024-03-23T12:01:51;10.90;1.00
1179;DHT22;578;48.408;10.004;2024-03-23T12:03:53;10.30;1.00
1179;DHT22;578;48.408;10.004;2024-03-23T12:05:55;9.90;1.00
1179;DHT22;578;48.408;10.004;2024-03-23T12:08:15;9.10;1.00
1179;DHT22;578;48.408;10.004;2024-03-23T12:10:19;8.90;1.70
1179;DHT22;578;48.408;10.004;2024-03-23T12:12:21;9.30;9.20
1179;DHT22;578;48.408;10.004;2024-03-23T12:14:22;9.20;1.00
1179;DHT22;578;48.408;10.004;2024-03-23T12:16:24;9.70;5.40
1179;DHT22;578;48.408;10.004;2024-03-23T12:18:28;9.60;1.00
1179;DHT22;578;48.408;10.004;2024-03-23T12:20:30;9.50;1.00
1179;DHT22;578;48.408;10.004;2024-03-23T12:22:31;9.90;1.00
1179;DHT22;578;48.408;10.004;2024-03-23T12:24:38;9.70;1.00
1179;DHT22;578;48.408;10.004;2024-03-23T12:26:53;9.30;1.00
1179;DHT22;578;48.408;10.004;2024-03-23T12:29:06;9.60;1.00
1179;DHT22;578;48.408;10.004;2024-03-23T12:31:08;10.00;1.00
1179;DHT22;578;48.408;10.004;2024-03-23T12:33:14;9.90;1.00
1179;DHT22;578;48.408;10.004;2024-03-23T12:35:27;10.10;1.00
1179;DHT22;578;48.408;10.004;2024-03-23T12:37:31;10.60;1.00
1179;DHT22;578;48.408;10.004;2024-03-23T12:39:31;10.20;1.00
1179;DHT22;578;48.408;10.004;2024-03-23T12:41:35;9.90;1.00
1179;DHT22;578;48.408;10.004;2024-03-23T12:43:37;9.50;1.00
1179;DHT22;578;48.408;10.004;2024-03-23T12:45:39;9.30;1.00
1179;DHT22;578;48.408;10.004;2024-03-23T12:47:40;9.10;1.00
1179;DHT22;578;48.408;10.004;2024-03-23T12:49:42;8.70;1.00
1179;DHT22;578;48.408;10.004;2024-03-23T12:51:48;8.90;1.00
1179;DHT22;578;48.408;10.004;2024-03-23T12:53:50;9.00;1.00
1179;DHT22;578;48.408;10.004;2024-03-23T12:55:50;9.20;1.00
1179;DHT22;578;48.408;10.004;2024-03-23T12:57:52;9.40;1.00
1179;DHT22;578;48.408;10.004;2024-03-23T12:59:54;9.60;1.00
1179;DHT22;578;48.408;10.004;2024-03-23T13:01:56;9.80;1.00
1179;DHT22;578;48.408;10.004;2024-03-23T13:03:57;9.80;1.00
1179;DHT22;578;48.408;10.004;2024-03-23T13:05:59;9.70;1.00
1179;DHT22;578;48.408;10.004;2024-03-23T13:08:00;9.60;1.00
1179;DHT22;578;48.408;10.004;2024-03-23T13:10:01;9.50;1.00
1179;DHT22;578;48.408;10.004;2024-03-23T13:12:06;9.40;1.10
1179;DHT22;578;48.408;10.004;2024-03-23T13:14:07;9.20;1.00
1179;DHT22;578;48.408;10.004;2024-03-23T13:16:10;9.00;8.30
1179;DHT22;578;48.408;10.004;2024-03-23T13:18:11;9.40;9.90
1179;DHT22;578;48.408;10.004;2024-03-23T13:20:12;9.30;5.20
1179;DHT22;578;48.408;10.004;2024-03-23T13:22:15;9.60;7.50
1179;DHT22;578;48.408;10.004;2024-03-23T13:24:17;9.50;1.00
1179;DHT22;578;48.408;10.004;2024-03-23T13:26:18;9.30;1.50
1179;DHT22;578;48.408;10.004;2024-03-23T13:28:20;9.10;1.10
1179;DHT22;578;48.408;10.004;2024-03-23T13:30:20;9.20;4.80
1179;DHT22;578;48.408;10.004;2024-03-23T13:32:24;9.30;7.20
1179;DHT22;578;48.408;10.004;2024-03-23T13:34:24;9.30;7.60
1179;DHT22;578;48.408;10.004;2024-03-23T13:36:26;8.80;3.40
1179;DHT22;578;48.408;10.004;2024-03-23T13:38:27;8.90;14.10
1179;DHT22;578;48.408;10.004;2024-03-23T13:40:29;8.90;10.00
1179;DHT22;578;48.408;10.004;2024-03-23T13:42:30;8.60;10.60
1179;DHT22;578;48.408;10.004;2024-03-23T13:44:32;8.70;15.00
1179;DHT22;578;48.408;10.004;2024-03-23T13:46:32;8.90;21.60
1179;DHT22;578;48.408;10.004;2024-03-23T13:48:36;9.10;21.10
1179;DHT22;578;48.408;10.004;2024-03-23T13:50:36;8.90;8.60
1179;DHT22;578;48.408;10.004;2024-03-23T13:52:38;8.50;5.10
1179;DHT22;578;48.408;10.004;2024-03-23T13:54:39;8.50;14.90
1179;DHT22;578;48.408;10.004;2024-03-23T13:56:45;8.50;19.40
1179;DHT22;578;48.408;10.004;2024-03-23T13:58:46;8.80;24.60
1179;DHT22;578;48.408;10.004;2024-03-23T14:00:48;8.80;13.60
1179;DHT22;578;48.408;10.004;2024-03-23T14:02:49;8.90;16.80
1179;DHT22;578;48.408;10.004;2024-03-23T14:04:52;9.00;7.30
1179;DHT22;578;48.408;10.004;2024-03-23T14:06:53;9.10;8.40
1179;DHT22;578;48.408;10.004;2024-03-23T14:08:55;9.20;6.90
1179;DHT22;578;48.408;10.004;2024-03-23T14:10:56;8.90;3.30
1179;DHT22;578;48.408;10.004;2024-03-23T14:12:58;8.70;4.30
1179;DHT22;578;48.408;10.004;2024-03-23T14:15:00;8.80;6.50
1179;DHT22;578;48.408;10.004;2024-03-23T14:17:03;8.80;7.80
1179;DHT22;578;48.408;10.004;2024-03-23T14:19:04;8.90;8.00
1179;DHT22;578;48.408;10.004;2024-03-23T14:21:07;9.20;7.80
1179;DHT22;578;48.408;10.004;2024-03-23T14:23:08;9.50;1.00